Tk Rotterdam — A8RG8 — position and weather

sailwx.info

Track history (hours):
 
Tides and Currents Weather Stations Pressure Air Temp Water Temp Dewpoint Dewpoint Depression Visibility Wind Speed Wind Dir Waves Ship Positions

Tk Rotterdam

Last reported at 2017-May-26 13:55 UTC. Time now 2017-May-27 21:06 UTC.
Position N 43°49' W 005°34'.

Length 130 m; draft 5.5 m.

Type: Cargo ship. MMSI: 636014098.

Date/timePositionNaut miles runAvg speedWind from/ knotsBaromVisibWave heightAir tempDewpointWater temp
2017-May-26 13:55N 43°49' W 005°34'5 8.7
2017-May-26 13:24N 43°49' W 005°28'4 8.3
2017-May-26 12:58N 43°49' W 005°23'4 8.3
2017-May-26 12:28N 43°49' W 005°17'2 2.3
2017-May-26 11:27N 43°47' W 005°14'2 1.7
2017-May-26 10:01N 43°47' W 005°18'1 1.8
2017-May-26 09:38N 43°47' W 005°18'0 1.2
2017-May-26 09:15N 43°47' W 005°19'2 1.2
2017-May-26 07:55N 43°47' W 005°21'1 1.3
2017-May-26 07:29N 43°47' W 005°22'0 0.5
2017-May-26 06:47N 43°47' W 005°23'0 1.3
2017-May-26 06:30N 43°46' W 005°23'4 8.3
2017-May-26 06:00N 43°42' W 005°23'3 5.2
2017-May-26 05:30N 43°40' W 005°23'0 0.8
2017-May-26 05:00N 43°40' W 005°24'0 0.8
2017-May-26 04:30N 43°40' W 005°24'1 1.0
2017-May-26 04:00N 43°41' W 005°24'1 1.1
2017-May-26 03:30N 43°41' W 005°25'1 1.1
2017-May-26 03:00N 43°42' W 005°25'1 1.1
2017-May-26 02:30N 43°42' W 005°26'1 1.1
2017-May-26 02:00N 43°42' W 005°26'0 0.9
2017-May-26 01:30N 43°43' W 005°27'0 0.8
2017-May-26 01:00N 43°43' W 005°27'1 1.0
2017-May-26 00:30N 43°44' W 005°27'2 0.3
2017-May-25 19:16N 43°45' W 005°29'0 1.5
2017-May-25 19:00N 43°45' W 005°29'0 0.3
2017-May-25 18:28N 43°45' W 005°30'0 0.1
2017-May-25 18:00N 43°45' W 005°30'1 0.9
2017-May-25 17:28N 43°45' W 005°30'1 1.4
2017-May-25 16:59N 43°45' W 005°31'1 2.3
2017-May-25 16:27N 43°45' W 005°33'0 0.6
2017-May-25 16:00N 43°45' W 005°33'1 1.0
2017-May-25 15:28N 43°45' W 005°34'1 1.1
2017-May-25 14:35N 43°44' W 005°35'0 0.4
2017-May-25 13:56N 43°44' W 005°36'2 4.5
2017-May-25 13:30N 43°43' W 005°37'5 9.3
2017-May-25 13:00N 43°39' W 005°40'3 5.1
2017-May-25 12:25N 43°36' W 005°42'0 0.0
2017-May-25 12:00N 43°36' W 005°42'0 0.0
2017-May-25 11:30N 43°36' W 005°42'0 0.0
2017-May-25 11:00N 43°36' W 005°42'0 0.0
2017-May-25 10:30N 43°36' W 005°42'0 0.0
2017-May-25 09:59N 43°36' W 005°42'0 0.0
2017-May-25 09:23N 43°36' W 005°42'0 0.0
2017-May-25 08:53N 43°36' W 005°42'0 0.0
2017-May-25 08:28N 43°36' W 005°42'0 0.0
2017-May-25 07:58N 43°36' W 005°42'0 0.0
2017-May-25 07:28N 43°36' W 005°42'0 0.0
2017-May-25 06:27N 43°36' W 005°42'0 0.0
2017-May-25 05:57N 43°36' W 005°42'0 0.0
2017-May-25 05:27N 43°36' W 005°42'0 0.0
2017-May-25 04:50N 43°36' W 005°42'0 0.0
2017-May-25 04:26N 43°36' W 005°42'0 0.0
2017-May-25 03:37N 43°36' W 005°42'0 0.0
2017-May-25 03:25N 43°36' W 005°42'0 0.0
2017-May-25 02:55N 43°36' W 005°42'0 0.0
2017-May-25 02:25N 43°36' W 005°42'0 0.0
2017-May-25 02:01N 43°36' W 005°42'0 0.0
2017-May-25 01:30N 43°36' W 005°42'0 0.0
2017-May-25 01:00N 43°36' W 005°42'0 0.0
2017-May-25 00:30N 43°36' W 005°42'0 0.0
2017-May-24 23:59N 43°36' W 005°42'0 0.0
2017-May-24 23:29N 43°36' W 005°42'0 0.0
2017-May-24 22:59N 43°36' W 005°42'0 0.0
2017-May-24 22:28N 43°36' W 005°42'0 0.0
2017-May-24 21:52N 43°36' W 005°42'0 0.0
2017-May-24 21:28N 43°36' W 005°42'0 0.0
2017-May-24 20:58N 43°36' W 005°42'0 0.0
2017-May-24 20:27N 43°36' W 005°42'0 0.0
2017-May-24 19:21N 43°36' W 005°42'0 0.0
2017-May-24 18:50N 43°36' W 005°42'0 0.0
2017-May-24 18:26N 43°36' W 005°42'0 0.0
2017-May-24 17:56N 43°36' W 005°42'0 0.0
2017-May-24 17:25N 43°36' W 005°42'0 0.0
2017-May-24 16:55N 43°36' W 005°42'0 0.0
2017-May-24 16:25N 43°36' W 005°42'0 0.2
2017-May-24 15:48N 43°36' W 005°42'1 3.5
2017-May-24 15:30N 43°36' W 005°41'1 2.8
2017-May-24 15:00N 43°35' W 005°41'0 0.5
2017-May-24 14:06N 43°35' W 005°41'0 0.0
2017-May-24 13:29N 43°35' W 005°41'0 0.0
2017-May-24 12:59N 43°35' W 005°41'0 0.0
2017-May-24 12:30N 43°35' W 005°41'0 0.0
2017-May-24 12:00N 43°35' W 005°41'0 0.0
2017-May-24 11:30N 43°35' W 005°41'0 0.0
2017-May-24 10:53N 43°35' W 005°41'0 0.0
2017-May-24 10:29N 43°35' W 005°41'0 0.0
2017-May-24 09:59N 43°35' W 005°41'0 0.0
2017-May-24 08:34N 43°35' W 005°41'0 0.1
2017-May-24 08:28N 43°35' W 005°41'0 0.0
2017-May-24 07:58N 43°35' W 005°41'0 0.0
2017-May-24 07:27N 43°35' W 005°41'0 0.0
2017-May-24 06:45N 43°35' W 005°41'0 0.0
2017-May-24 06:27N 43°35' W 005°41'0 0.0
2017-May-24 05:50N 43°35' W 005°41'0 0.0
2017-May-24 05:26N 43°35' W 005°41'0 0.0
2017-May-24 04:56N 43°35' W 005°41'0 0.0
2017-May-24 04:26N 43°35' W 005°41'0 0.0
2017-May-24 03:55N 43°35' W 005°41'0 0.0
2017-May-24 03:25N 43°35' W 005°41'0 0.0
2017-May-24 02:55N 43°35' W 005°41'0 0.0
2017-May-24 02:30N 43°35' W 005°41'0 0.0
2017-May-24 02:00N 43°35' W 005°41'0 0.0
2017-May-24 01:30N 43°35' W 005°41'0 0.0
2017-May-24 01:00N 43°35' W 005°41'0 0.0
2017-May-24 00:29N 43°35' W 005°41'0 0.0
2017-May-23 21:58N 43°35' W 005°41'0 0.0
2017-May-23 21:27N 43°35' W 005°41'0 0.0
2017-May-23 20:57N 43°35' W 005°41'0 0.0
2017-May-23 20:27N 43°35' W 005°41'0 0.0
2017-May-23 19:57N 43°35' W 005°41'0 0.0
2017-May-23 19:26N 43°35' W 005°41'0 0.0
2017-May-23 18:56N 43°35' W 005°41'0 0.0
2017-May-23 18:26N 43°35' W 005°41'0 0.0
2017-May-23 17:55N 43°35' W 005°41'0 0.0
2017-May-23 17:25N 43°35' W 005°41'0 0.0
2017-May-23 16:55N 43°35' W 005°41'0 0.0
2017-May-23 16:30N 43°35' W 005°41'0 0.0
2017-May-23 16:00N 43°35' W 005°41'0 0.0
2017-May-23 15:24N 43°35' W 005°41'0 0.0
2017-May-23 15:00N 43°35' W 005°41'0 0.0
2017-May-23 13:59N 43°35' W 005°41'0 0.0
2017-May-23 13:29N 43°35' W 005°41'0 0.0
2017-May-23 12:58N 43°35' W 005°41'0 0.0
2017-May-23 12:28N 43°35' W 005°41'0 0.0
2017-May-23 11:58N 43°35' W 005°41'0 0.0
2017-May-23 11:27N 43°35' W 005°41'0 0.0
2017-May-23 10:57N 43°35' W 005°41'0 0.0
2017-May-23 10:27N 43°35' W 005°41'0 0.0
2017-May-23 09:57N 43°35' W 005°41'0 0.0
2017-May-23 09:26N 43°35' W 005°41'0 0.0
2017-May-23 08:56N 43°35' W 005°41'0 0.0
2017-May-23 08:20N 43°35' W 005°41'0 0.0
2017-May-23 07:49N 43°35' W 005°41'0 0.0
2017-May-23 07:25N 43°35' W 005°41'0 0.0
2017-May-23 06:55N 43°35' W 005°41'0 0.0
2017-May-23 06:31N 43°35' W 005°41'0 0.0
2017-May-23 06:00N 43°35' W 005°41'0 0.0
2017-May-23 05:30N 43°35' W 005°41'0 0.0
2017-May-23 05:00N 43°35' W 005°41'0 0.0
2017-May-23 04:29N 43°35' W 005°41'0 0.0
2017-May-23 03:59N 43°35' W 005°41'0 0.0
2017-May-23 03:29N 43°35' W 005°41'0 0.0
2017-May-23 02:58N 43°35' W 005°41'0 0.0
2017-May-23 02:28N 43°35' W 005°41'0 0.0
2017-May-23 01:58N 43°35' W 005°41'0 0.0
2017-May-23 01:28N 43°35' W 005°41'0 0.0
2017-May-23 00:57N 43°35' W 005°41'0 0.0
2017-May-23 00:27N 43°35' W 005°41'0 0.0
2017-May-22 23:57N 43°35' W 005°41'0 0.0
2017-May-22 22:50N 43°35' W 005°41'0 0.0
2017-May-22 20:19N 43°35' W 005°41'0 0.0
2017-May-22 19:54N 43°35' W 005°41'0 0.0
2017-May-22 19:30N 43°35' W 005°41'0 0.0
2017-May-22 19:00N 43°35' W 005°41'0 0.0
2017-May-22 18:29N 43°35' W 005°41'0 0.0
2017-May-22 17:59N 43°35' W 005°41'0 0.0
2017-May-22 17:29N 43°35' W 005°41'0 0.0
2017-May-22 16:59N 43°35' W 005°41'0 0.0
2017-May-22 16:28N 43°35' W 005°41'0 0.0
2017-May-22 15:58N 43°35' W 005°41'0 0.0
2017-May-22 15:28N 43°35' W 005°41'0 0.0
2017-May-22 14:57N 43°35' W 005°41'0 0.0
2017-May-22 13:54N 43°35' W 005°41'0 0.0
2017-May-22 13:30N 43°35' W 005°41'0 0.0
2017-May-22 13:00N 43°35' W 005°41'0 0.0
2017-May-22 12:30N 43°35' W 005°41'0 0.0
2017-May-22 11:59N 43°35' W 005°41'0 0.0
2017-May-22 11:29N 43°35' W 005°41'0 0.0
2017-May-22 10:59N 43°35' W 005°41'0 0.0
2017-May-22 10:28N 43°35' W 005°41'0 0.0
2017-May-22 09:52N 43°35' W 005°41'0 0.0
2017-May-22 09:28N 43°35' W 005°41'0 0.0
2017-May-22 08:58N 43°35' W 005°41'0 0.0
2017-May-22 08:21N 43°35' W 005°41'0 0.0
2017-May-22 07:57N 43°35' W 005°41'0 0.0
2017-May-22 07:27N 43°35' W 005°41'0 0.0
2017-May-22 06:56N 43°35' W 005°41'0 0.0
2017-May-22 06:08N 43°35' W 005°41'0 0.0
2017-May-22 05:56N 43°35' W 005°41'0 0.0
2017-May-22 05:25N 43°35' W 005°41'0 0.0
2017-May-22 04:55N 43°35' W 005°41'0 0.0
2017-May-22 04:25N 43°35' W 005°41'0 0.0
2017-May-22 03:55N 43°35' W 005°41'0 0.0
2017-May-22 03:30N 43°35' W 005°41'0 0.0
2017-May-22 03:00N 43°35' W 005°41'0 0.0
2017-May-22 02:30N 43°35' W 005°41'0 0.0
2017-May-22 01:59N 43°35' W 005°41'0 0.0
2017-May-22 01:29N 43°35' W 005°41'0 0.0
2017-May-22 00:59N 43°35' W 005°41'0 0.0
2017-May-22 00:29N 43°35' W 005°41'0 0.0
2017-May-21 20:32N 43°35' W 005°41'0 0.0
2017-May-21 20:26N 43°35' W 005°41'1 1.1
2017-May-21 19:59N 43°35' W 005°41'3 7.0
2017-May-21 19:30N 43°38' W 005°41'4 8.3
2017-May-21 19:00N 43°42' W 005°42'4 7.9
2017-May-21 18:30N 43°45' W 005°46'4 7.7
2017-May-21 18:00N 43°47' W 005°51'4 7.9
2017-May-21 17:29N 43°47' W 005°56'4 8.0
2017-May-21 16:56N 43°47' W 006°02'4 8.0
2017-May-21 16:25N 43°48' W 006°08'5 7.9
2017-May-21 15:48N 43°48' W 006°15'304 5.9
2017-May-19 11:56N 39°29' W 009°49'4 7.9
2017-May-19 11:23N 39°25' W 009°49'3 7.8
2017-May-19 11:00N 39°22' W 009°49'4 7.9
2017-May-19 10:30N 39°18' W 009°49'4 8.1
2017-May-19 10:00N 39°14' W 009°49'4 8.1
2017-May-19 09:30N 39°10' W 009°50'4 7.9
2017-May-19 09:00N 39°06' W 009°50'4 7.9
2017-May-19 08:30N 39°02' W 009°51'4 7.8
2017-May-19 08:00N 38°58' W 009°51'4 7.7
2017-May-19 07:30N 38°55' W 009°51'4 7.4
2017-May-19 07:00N 38°51' W 009°51'4 7.2
2017-May-19 06:30N 38°47' W 009°51'4 7.4
2017-May-19 06:00N 38°44' W 009°51'4 7.4
2017-May-19 05:30N 38°40' W 009°51'4 7.2
2017-May-19 05:00N 38°36' W 009°51'4 7.2
2017-May-19 04:30N 38°33' W 009°49'4 7.3
2017-May-19 04:00N 38°29' W 009°48'4 7.3
2017-May-19 03:30N 38°26' W 009°47'4 7.1
2017-May-19 03:00N 38°22' W 009°46'3 6.8
2017-May-19 02:30N 38°19' W 009°45'3 6.9
2017-May-19 02:00N 38°16' W 009°44'3 6.7
2017-May-19 01:30N 38°12' W 009°43'4 6.9
2017-May-19 00:52N 38°08' W 009°42'3 6.7
2017-May-19 00:28N 38°05' W 009°42'4 6.9
2017-May-18 23:56N 38°02' W 009°41'146 5.7
2017-May-17 22:31N 36°19' W 007°31'0 8.5
2017-May-17 22:30N 36°19' W 007°31'96 8.6
2017-May-17 11:26N 35°58' W 005°35'3 7.8
2017-May-17 11:00N 35°58' W 005°31'4 8.6
2017-May-17 10:30N 35°59' W 005°26'4 8.2
2017-May-17 10:00N 35°58' W 005°21'3 6.5
2017-May-17 09:30N 35°55' W 005°20'0 0.1
2017-May-17 09:00N 35°55' W 005°20'0 0.1
2017-May-17 08:30N 35°55' W 005°20'0 0.0
2017-May-17 08:00N 35°55' W 005°20'0 0.1
2017-May-17 07:30N 35°55' W 005°20'0 0.0
2017-May-17 07:00N 35°55' W 005°20'0 0.1
2017-May-17 06:30N 35°55' W 005°20'0 0.0
2017-May-17 06:00N 35°55' W 005°20'0 0.0
2017-May-17 05:29N 35°55' W 005°20'0 0.0
2017-May-17 04:58N 35°55' W 005°20'0 0.0
2017-May-17 04:30N 35°55' W 005°20'0 0.0
2017-May-17 04:00N 35°55' W 005°20'0 0.0
2017-May-17 03:30N 35°55' W 005°20'0 0.0
2017-May-17 02:59N 35°55' W 005°20'0 0.0
2017-May-17 02:29N 35°55' W 005°20'0 0.1
2017-May-17 02:00N 35°55' W 005°20'0 0.0
2017-May-17 01:29N 35°55' W 005°20'0 0.0
2017-May-17 01:00N 35°55' W 005°20'0 0.1
2017-May-17 00:30N 35°55' W 005°20'0 0.0
2017-May-16 23:59N 35°55' W 005°20'0 0.0
2017-May-16 23:28N 35°55' W 005°20'0 0.2
2017-May-16 23:00N 35°55' W 005°20'0 0.1
2017-May-16 22:30N 35°55' W 005°20'0 0.2
2017-May-16 22:00N 35°55' W 005°20'0 0.8
2017-May-16 21:30N 35°55' W 005°19'3 5.9
2017-May-16 21:01N 35°57' W 005°17'4 8.9
2017-May-16 20:30N 35°59' W 005°12'  
Track history (hours):
 
Tides and Currents Weather Stations Pressure Air Temp Water Temp Dewpoint Dewpoint Depression Visibility Wind Speed Wind Dir Waves Ship Positions

Tk Rotterdam

Last reported at 2017-May-26 13:55 UTC. Time now 2017-May-27 21:06 UTC.
Position N 43°49' W 005°34'.

Length 130 m; draft 5.5 m.

Type: Cargo ship. MMSI: 636014098.

Date/timePositionNaut miles runAvg speedWind from/ knotsBaromVisibWave heightAir tempDewpointWater temp
2017-May-26 13:55N 43°49' W 005°34'5 8.7
2017-May-26 13:24N 43°49' W 005°28'4 8.3
2017-May-26 12:58N 43°49' W 005°23'4 8.3
2017-May-26 12:28N 43°49' W 005°17'2 2.3
2017-May-26 11:27N 43°47' W 005°14'2 1.7
2017-May-26 10:01N 43°47' W 005°18'1 1.8
2017-May-26 09:38N 43°47' W 005°18'0 1.2
2017-May-26 09:15N 43°47' W 005°19'2 1.2
2017-May-26 07:55N 43°47' W 005°21'1 1.3
2017-May-26 07:29N 43°47' W 005°22'0 0.5
2017-May-26 06:47N 43°47' W 005°23'0 1.3
2017-May-26 06:30N 43°46' W 005°23'4 8.3
2017-May-26 06:00N 43°42' W 005°23'3 5.2
2017-May-26 05:30N 43°40' W 005°23'0 0.8
2017-May-26 05:00N 43°40' W 005°24'0 0.8
2017-May-26 04:30N 43°40' W 005°24'1 1.0
2017-May-26 04:00N 43°41' W 005°24'1 1.1
2017-May-26 03:30N 43°41' W 005°25'1 1.1
2017-May-26 03:00N 43°42' W 005°25'1 1.1
2017-May-26 02:30N 43°42' W 005°26'1 1.1
2017-May-26 02:00N 43°42' W 005°26'0 0.9
2017-May-26 01:30N 43°43' W 005°27'0 0.8
2017-May-26 01:00N 43°43' W 005°27'1 1.0
2017-May-26 00:30N 43°44' W 005°27'2 0.3
2017-May-25 19:16N 43°45' W 005°29'0 1.5
2017-May-25 19:00N 43°45' W 005°29'0 0.3
2017-May-25 18:28N 43°45' W 005°30'0 0.1
2017-May-25 18:00N 43°45' W 005°30'1 0.9
2017-May-25 17:28N 43°45' W 005°30'1 1.4
2017-May-25 16:59N 43°45' W 005°31'1 2.3
2017-May-25 16:27N 43°45' W 005°33'0 0.6
2017-May-25 16:00N 43°45' W 005°33'1 1.0
2017-May-25 15:28N 43°45' W 005°34'1 1.1
2017-May-25 14:35N 43°44' W 005°35'0 0.4
2017-May-25 13:56N 43°44' W 005°36'2 4.5
2017-May-25 13:30N 43°43' W 005°37'5 9.3
2017-May-25 13:00N 43°39' W 005°40'3 5.1
2017-May-25 12:25N 43°36' W 005°42'0 0.0
2017-May-25 12:00N 43°36' W 005°42'0 0.0
2017-May-25 11:30N 43°36' W 005°42'0 0.0
2017-May-25 11:00N 43°36' W 005°42'0 0.0
2017-May-25 10:30N 43°36' W 005°42'0 0.0
2017-May-25 09:59N 43°36' W 005°42'0 0.0
2017-May-25 09:23N 43°36' W 005°42'0 0.0
2017-May-25 08:53N 43°36' W 005°42'0 0.0
2017-May-25 08:28N 43°36' W 005°42'0 0.0
2017-May-25 07:58N 43°36' W 005°42'0 0.0
2017-May-25 07:28N 43°36' W 005°42'0 0.0
2017-May-25 06:27N 43°36' W 005°42'0 0.0
2017-May-25 05:57N 43°36' W 005°42'0 0.0
2017-May-25 05:27N 43°36' W 005°42'0 0.0
2017-May-25 04:50N 43°36' W 005°42'0 0.0
2017-May-25 04:26N 43°36' W 005°42'0 0.0
2017-May-25 03:37N 43°36' W 005°42'0 0.0
2017-May-25 03:25N 43°36' W 005°42'0 0.0
2017-May-25 02:55N 43°36' W 005°42'0 0.0
2017-May-25 02:25N 43°36' W 005°42'0 0.0
2017-May-25 02:01N 43°36' W 005°42'0 0.0
2017-May-25 01:30N 43°36' W 005°42'0 0.0
2017-May-25 01:00N 43°36' W 005°42'0 0.0
2017-May-25 00:30N 43°36' W 005°42'0 0.0
2017-May-24 23:59N 43°36' W 005°42'0 0.0
2017-May-24 23:29N 43°36' W 005°42'0 0.0
2017-May-24 22:59N 43°36' W 005°42'0 0.0
2017-May-24 22:28N 43°36' W 005°42'0 0.0
2017-May-24 21:52N 43°36' W 005°42'0 0.0
2017-May-24 21:28N 43°36' W 005°42'0 0.0
2017-May-24 20:58N 43°36' W 005°42'0 0.0
2017-May-24 20:27N 43°36' W 005°42'0 0.0
2017-May-24 19:21N 43°36' W 005°42'0 0.0
2017-May-24 18:50N 43°36' W 005°42'0 0.0
2017-May-24 18:26N 43°36' W 005°42'0 0.0
2017-May-24 17:56N 43°36' W 005°42'0 0.0
2017-May-24 17:25N 43°36' W 005°42'0 0.0
2017-May-24 16:55N 43°36' W 005°42'0 0.0
2017-May-24 16:25N 43°36' W 005°42'0 0.2
2017-May-24 15:48N 43°36' W 005°42'1 3.5
2017-May-24 15:30N 43°36' W 005°41'1 2.8
2017-May-24 15:00N 43°35' W 005°41'0 0.5
2017-May-24 14:06N 43°35' W 005°41'0 0.0
2017-May-24 13:29N 43°35' W 005°41'0 0.0
2017-May-24 12:59N 43°35' W 005°41'0 0.0
2017-May-24 12:30N 43°35' W 005°41'0 0.0
2017-May-24 12:00N 43°35' W 005°41'0 0.0
2017-May-24 11:30N 43°35' W 005°41'0 0.0
2017-May-24 10:53N 43°35' W 005°41'0 0.0
2017-May-24 10:29N 43°35' W 005°41'0 0.0
2017-May-24 09:59N 43°35' W 005°41'0 0.0
2017-May-24 08:34N 43°35' W 005°41'0 0.1
2017-May-24 08:28N 43°35' W 005°41'0 0.0
2017-May-24 07:58N 43°35' W 005°41'0 0.0
2017-May-24 07:27N 43°35' W 005°41'0 0.0
2017-May-24 06:45N 43°35' W 005°41'0 0.0
2017-May-24 06:27N 43°35' W 005°41'0 0.0
2017-May-24 05:50N 43°35' W 005°41'0 0.0
2017-May-24 05:26N 43°35' W 005°41'0 0.0
2017-May-24 04:56N 43°35' W 005°41'0 0.0
2017-May-24 04:26N 43°35' W 005°41'0 0.0
2017-May-24 03:55N 43°35' W 005°41'0 0.0
2017-May-24 03:25N 43°35' W 005°41'0 0.0
2017-May-24 02:55N 43°35' W 005°41'0 0.0
2017-May-24 02:30N 43°35' W 005°41'0 0.0
2017-May-24 02:00N 43°35' W 005°41'0 0.0
2017-May-24 01:30N 43°35' W 005°41'0 0.0
2017-May-24 01:00N 43°35' W 005°41'0 0.0
2017-May-24 00:29N 43°35' W 005°41'0 0.0
2017-May-23 21:58N 43°35' W 005°41'0 0.0
2017-May-23 21:27N 43°35' W 005°41'0 0.0
2017-May-23 20:57N 43°35' W 005°41'0 0.0
2017-May-23 20:27N 43°35' W 005°41'0 0.0
2017-May-23 19:57N 43°35' W 005°41'0 0.0
2017-May-23 19:26N 43°35' W 005°41'0 0.0
2017-May-23 18:56N 43°35' W 005°41'0 0.0
2017-May-23 18:26N 43°35' W 005°41'0 0.0
2017-May-23 17:55N 43°35' W 005°41'0 0.0
2017-May-23 17:25N 43°35' W 005°41'0 0.0
2017-May-23 16:55N 43°35' W 005°41'0 0.0
2017-May-23 16:30N 43°35' W 005°41'0 0.0
2017-May-23 16:00N 43°35' W 005°41'0 0.0
2017-May-23 15:24N 43°35' W 005°41'0 0.0
2017-May-23 15:00N 43°35' W 005°41'0 0.0
2017-May-23 13:59N 43°35' W 005°41'0 0.0
2017-May-23 13:29N 43°35' W 005°41'0 0.0
2017-May-23 12:58N 43°35' W 005°41'0 0.0
2017-May-23 12:28N 43°35' W 005°41'0 0.0
2017-May-23 11:58N 43°35' W 005°41'0 0.0
2017-May-23 11:27N 43°35' W 005°41'0 0.0
2017-May-23 10:57N 43°35' W 005°41'0 0.0
2017-May-23 10:27N 43°35' W 005°41'0 0.0
2017-May-23 09:57N 43°35' W 005°41'0 0.0
2017-May-23 09:26N 43°35' W 005°41'0 0.0
2017-May-23 08:56N 43°35' W 005°41'0 0.0
2017-May-23 08:20N 43°35' W 005°41'0 0.0
2017-May-23 07:49N 43°35' W 005°41'0 0.0
2017-May-23 07:25N 43°35' W 005°41'0 0.0
2017-May-23 06:55N 43°35' W 005°41'0 0.0
2017-May-23 06:31N 43°35' W 005°41'0 0.0
2017-May-23 06:00N 43°35' W 005°41'0 0.0
2017-May-23 05:30N 43°35' W 005°41'0 0.0
2017-May-23 05:00N 43°35' W 005°41'0 0.0
2017-May-23 04:29N 43°35' W 005°41'0 0.0
2017-May-23 03:59N 43°35' W 005°41'0 0.0
2017-May-23 03:29N 43°35' W 005°41'0 0.0
2017-May-23 02:58N 43°35' W 005°41'0 0.0
2017-May-23 02:28N 43°35' W 005°41'0 0.0
2017-May-23 01:58N 43°35' W 005°41'0 0.0
2017-May-23 01:28N 43°35' W 005°41'0 0.0
2017-May-23 00:57N 43°35' W 005°41'0 0.0
2017-May-23 00:27N 43°35' W 005°41'0 0.0
2017-May-22 23:57N 43°35' W 005°41'0 0.0
2017-May-22 22:50N 43°35' W 005°41'0 0.0
2017-May-22 20:19N 43°35' W 005°41'0 0.0
2017-May-22 19:54N 43°35' W 005°41'0 0.0
2017-May-22 19:30N 43°35' W 005°41'0 0.0
2017-May-22 19:00N 43°35' W 005°41'0 0.0
2017-May-22 18:29N 43°35' W 005°41'0 0.0
2017-May-22 17:59N 43°35' W 005°41'0 0.0
2017-May-22 17:29N 43°35' W 005°41'0 0.0
2017-May-22 16:59N 43°35' W 005°41'0 0.0
2017-May-22 16:28N 43°35' W 005°41'0 0.0
2017-May-22 15:58N 43°35' W 005°41'0 0.0
2017-May-22 15:28N 43°35' W 005°41'0 0.0
2017-May-22 14:57N 43°35' W 005°41'0 0.0
2017-May-22 13:54N 43°35' W 005°41'0 0.0
2017-May-22 13:30N 43°35' W 005°41'0 0.0
2017-May-22 13:00N 43°35' W 005°41'0 0.0
2017-May-22 12:30N 43°35' W 005°41'0 0.0
2017-May-22 11:59N 43°35' W 005°41'0 0.0
2017-May-22 11:29N 43°35' W 005°41'0 0.0
2017-May-22 10:59N 43°35' W 005°41'0 0.0
2017-May-22 10:28N 43°35' W 005°41'0 0.0
2017-May-22 09:52N 43°35' W 005°41'0 0.0
2017-May-22 09:28N 43°35' W 005°41'0 0.0
2017-May-22 08:58N 43°35' W 005°41'0 0.0
2017-May-22 08:21N 43°35' W 005°41'0 0.0
2017-May-22 07:57N 43°35' W 005°41'0 0.0
2017-May-22 07:27N 43°35' W 005°41'0 0.0
2017-May-22 06:56N 43°35' W 005°41'0 0.0
2017-May-22 06:08N 43°35' W 005°41'0 0.0
2017-May-22 05:56N 43°35' W 005°41'0 0.0
2017-May-22 05:25N 43°35' W 005°41'0 0.0
2017-May-22 04:55N 43°35' W 005°41'0 0.0
2017-May-22 04:25N 43°35' W 005°41'0 0.0
2017-May-22 03:55N 43°35' W 005°41'0 0.0
2017-May-22 03:30N 43°35' W 005°41'0 0.0
2017-May-22 03:00N 43°35' W 005°41'0 0.0
2017-May-22 02:30N 43°35' W 005°41'0 0.0
2017-May-22 01:59N 43°35' W 005°41'0 0.0
2017-May-22 01:29N 43°35' W 005°41'0 0.0
2017-May-22 00:59N 43°35' W 005°41'0 0.0
2017-May-22 00:29N 43°35' W 005°41'0 0.0
2017-May-21 20:32N 43°35' W 005°41'0 0.0
2017-May-21 20:26N 43°35' W 005°41'1 1.1
2017-May-21 19:59N 43°35' W 005°41'3 7.0
2017-May-21 19:30N 43°38' W 005°41'4 8.3
2017-May-21 19:00N 43°42' W 005°42'4 7.9
2017-May-21 18:30N 43°45' W 005°46'4 7.7
2017-May-21 18:00N 43°47' W 005°51'4 7.9
2017-May-21 17:29N 43°47' W 005°56'4 8.0
2017-May-21 16:56N 43°47' W 006°02'4 8.0
2017-May-21 16:25N 43°48' W 006°08'5 7.9
2017-May-21 15:48N 43°48' W 006°15'304 5.9
2017-May-19 11:56N 39°29' W 009°49'4 7.9
2017-May-19 11:23N 39°25' W 009°49'3 7.8
2017-May-19 11:00N 39°22' W 009°49'4 7.9
2017-May-19 10:30N 39°18' W 009°49'4 8.1
2017-May-19 10:00N 39°14' W 009°49'4 8.1
2017-May-19 09:30N 39°10' W 009°50'4 7.9
2017-May-19 09:00N 39°06' W 009°50'4 7.9
2017-May-19 08:30N 39°02' W 009°51'4 7.8
2017-May-19 08:00N 38°58' W 009°51'4 7.7
2017-May-19 07:30N 38°55' W 009°51'4 7.4
2017-May-19 07:00N 38°51' W 009°51'4 7.2
2017-May-19 06:30N 38°47' W 009°51'4 7.4
2017-May-19 06:00N 38°44' W 009°51'4 7.4
2017-May-19 05:30N 38°40' W 009°51'4 7.2
2017-May-19 05:00N 38°36' W 009°51'4 7.2
2017-May-19 04:30N 38°33' W 009°49'4 7.3
2017-May-19 04:00N 38°29' W 009°48'4 7.3
2017-May-19 03:30N 38°26' W 009°47'4 7.1
2017-May-19 03:00N 38°22' W 009°46'3 6.8
2017-May-19 02:30N 38°19' W 009°45'3 6.9
2017-May-19 02:00N 38°16' W 009°44'3 6.7
2017-May-19 01:30N 38°12' W 009°43'4 6.9
2017-May-19 00:52N 38°08' W 009°42'3 6.7
2017-May-19 00:28N 38°05' W 009°42'4 6.9
2017-May-18 23:56N 38°02' W 009°41'146 5.7
2017-May-17 22:31N 36°19' W 007°31'0 8.5
2017-May-17 22:30N 36°19' W 007°31'96 8.6
2017-May-17 11:26N 35°58' W 005°35'3 7.8
2017-May-17 11:00N 35°58' W 005°31'4 8.6
2017-May-17 10:30N 35°59' W 005°26'4 8.2
2017-May-17 10:00N 35°58' W 005°21'3 6.5
2017-May-17 09:30N 35°55' W 005°20'0 0.1
2017-May-17 09:00N 35°55' W 005°20'0 0.1
2017-May-17 08:30N 35°55' W 005°20'0 0.0
2017-May-17 08:00N 35°55' W 005°20'0 0.1
2017-May-17 07:30N 35°55' W 005°20'0 0.0
2017-May-17 07:00N 35°55' W 005°20'0 0.1
2017-May-17 06:30N 35°55' W 005°20'0 0.0
2017-May-17 06:00N 35°55' W 005°20'0 0.0
2017-May-17 05:29N 35°55' W 005°20'0 0.0
2017-May-17 04:58N 35°55' W 005°20'0 0.0
2017-May-17 04:30N 35°55' W 005°20'0 0.0
2017-May-17 04:00N 35°55' W 005°20'0 0.0
2017-May-17 03:30N 35°55' W 005°20'0 0.0
2017-May-17 02:59N 35°55' W 005°20'0 0.0
2017-May-17 02:29N 35°55' W 005°20'0 0.1
2017-May-17 02:00N 35°55' W 005°20'0 0.0
2017-May-17 01:29N 35°55' W 005°20'0 0.0
2017-May-17 01:00N 35°55' W 005°20'0 0.1
2017-May-17 00:30N 35°55' W 005°20'0 0.0
2017-May-16 23:59N 35°55' W 005°20'0 0.0
2017-May-16 23:28N 35°55' W 005°20'0 0.2
2017-May-16 23:00N 35°55' W 005°20'0 0.1
2017-May-16 22:30N 35°55' W 005°20'0 0.2
2017-May-16 22:00N 35°55' W 005°20'0 0.8
2017-May-16 21:30N 35°55' W 005°19'3 5.9
2017-May-16 21:01N 35°57' W 005°17'4 8.9
2017-May-16 20:30N 35°59' W 005°12'  

Dump ship's entire track history